This is the latest recevied weather packets stored in our database for station/object GOLDWX. If no packets are shown the sender has not sent any weather packets the latest 10 day(s).
| Time | Temp. | Humidity | Pressure | Rain* | Wind** | Luminosity | Snow |
|---|---|---|---|---|---|---|---|
| 1777435346 | 7.78° C | 73% | 1019.3 hPa | 0 mm | - | - | - |
| 1777435045 | 7.78° C | 74% | 1019.2 hPa | 0 mm | - | - | - |
| 1777434444 | 8.33° C | 68% | 1019.3 hPa | 0 mm | - | - | - |
| 1777434143 | 8.33° C | 67% | 1019.5 hPa | 0 mm | - | - | - |
| 1777433541 | 8.33° C | 67% | 1019.4 hPa | 0 mm | - | - | - |
| 1777433240 | 8.33° C | 67% | 1019.4 hPa | 0 mm | - | - | - |
| 1777432638 | 8.89° C | 66% | 1019.3 hPa | 0 mm | - | - | - |
| 1777432338 | 8.89° C | 67% | 1019.2 hPa | 0 mm | - | - | - |
| 1777431736 | 9.44° C | 65% | 1018.9 hPa | 0 mm | - | - | - |
| 1777431435 | 9.44° C | 64% | 1018.9 hPa | 0 mm | - | - | - |
| 1777430833 | 10.56° C | 59% | 1018.9 hPa | 0 mm | - | - | - |
| 1777430533 | 10.56° C | 59% | 1018.8 hPa | 0 mm | - | - | - |
| 1777429931 | 11.11° C | 57% | 1018.5 hPa | 0 mm | - | - | - |
| 1777429630 | 11.11° C | 56% | 1018.5 hPa | 0 mm | - | - | - |
| 1777429028 | 11.67° C | 53% | 1018.4 hPa | 0 mm | - | - | - |
| 1777428728 | 11.67° C | 53% | 1018.4 hPa | 0 mm | - | - | - |
| 1777428126 | 11.67° C | 53% | 1018.1 hPa | 0 mm | - | - | - |
| 1777427825 | 12.22° C | 51% | 1018.1 hPa | 0 mm | - | - | - |
| 1777427223 | 12.22° C | 51% | 1017.9 hPa | 0 mm | - | - | - |
| 1777426923 | 12.22° C | 49% | 1017.8 hPa | 0 mm | - | - | - |
| 1777426321 | 13.33° C | 45% | 1017.4 hPa | 0 mm | - | - | - |
| 1777426020 | 13.33° C | 43% | 1017.2 hPa | 0 mm | - | - | - |
| 1777425418 | 15° C | 36% | 1016.8 hPa | 0 mm | - | - | - |
| 1777425119 | 15° C | 36% | 1016.6 hPa | 0 mm | - | - | - |
| 1777424516 | 15° C | 35% | 1016.4 hPa | 0 mm | - | - | - |
* Rain since midnight (hover to see other rain measurements)
** Current wind speed in m/s (hover to see current wind gust speed)